sensor_id;sensor_type;location;lat;lon;timestamp;P1;durP1;ratioP1;P2;durP2;ratioP2
50821;SDS011;36794;51.212;6.980;2022-11-04T00:00:30;2.13;;;0.75;;
50821;SDS011;36794;51.212;6.980;2022-11-04T00:02:56;1.87;;;0.70;;
50821;SDS011;36794;51.212;6.980;2022-11-04T00:05:22;1.67;;;1.03;;
50821;SDS011;36794;51.212;6.980;2022-11-04T00:07:48;2.43;;;0.87;;
50821;SDS011;36794;51.212;6.980;2022-11-04T00:10:32;1.33;;;0.70;;
50821;SDS011;36794;51.212;6.980;2022-11-04T00:13:17;1.33;;;0.73;;
50821;SDS011;36794;51.212;6.980;2022-11-04T00:15:43;1.10;;;0.63;;
50821;SDS011;36794;51.212;6.980;2022-11-04T00:18:27;3.53;;;0.73;;
50821;SDS011;36794;51.212;6.980;2022-11-04T00:20:55;4.60;;;0.90;;
50821;SDS011;36794;51.212;6.980;2022-11-04T00:54:26;3.57;;;1.00;;
50821;SDS011;36794;51.212;6.980;2022-11-04T00:56:52;2.13;;;0.80;;
50821;SDS011;36794;51.212;6.980;2022-11-04T00:59:18;3.30;;;0.80;;
50821;SDS011;36794;51.212;6.980;2022-11-04T01:01:44;2.73;;;0.93;;
50821;SDS011;36794;51.212;6.980;2022-11-04T01:04:12;5.57;;;1.00;;
50821;SDS011;36794;51.212;6.980;2022-11-04T01:06:38;2.30;;;0.80;;
50821;SDS011;36794;51.212;6.980;2022-11-04T01:09:06;2.57;;;1.00;;
50821;SDS011;36794;51.212;6.980;2022-11-04T01:11:34;2.33;;;1.00;;
50821;SDS011;36794;51.212;6.980;2022-11-04T01:14:10;3.63;;;1.20;;
50821;SDS011;36794;51.212;6.980;2022-11-04T01:16:58;2.73;;;1.13;;
50821;SDS011;36794;51.212;6.980;2022-11-04T01:19:26;3.67;;;1.37;;
50821;SDS011;36794;51.212;6.980;2022-11-04T01:21:52;4.73;;;1.33;;
50821;SDS011;36794;51.212;6.980;2022-11-04T01:24:18;2.27;;;1.50;;
50821;SDS011;36794;51.212;6.980;2022-11-04T01:26:44;4.43;;;1.50;;
50821;SDS011;36794;51.212;6.980;2022-11-04T01:29:10;2.93;;;1.60;;
50821;SDS011;36794;51.212;6.980;2022-11-04T01:31:38;2.73;;;1.33;;
50821;SDS011;36794;51.212;6.980;2022-11-04T01:34:04;2.93;;;1.73;;
50821;SDS011;36794;51.212;6.980;2022-11-04T01:36:30;2.93;;;1.77;;
50821;SDS011;36794;51.212;6.980;2022-11-04T01:38:56;3.17;;;2.10;;
50821;SDS011;36794;51.212;6.980;2022-11-04T01:41:23;3.57;;;2.30;;
50821;SDS011;36794;51.212;6.980;2022-11-04T01:46:26;5.50;;;2.87;;
50821;SDS011;36794;51.212;6.980;2022-11-04T01:48:55;8.73;;;2.70;;
50821;SDS011;36794;51.212;6.980;2022-11-04T01:51:22;5.03;;;3.07;;
50821;SDS011;36794;51.212;6.980;2022-11-04T01:53:49;5.60;;;3.23;;
50821;SDS011;36794;51.212;6.980;2022-11-04T01:56:15;4.40;;;2.97;;
50821;SDS011;36794;51.212;6.980;2022-11-04T01:58:45;10.07;;;2.77;;
50821;SDS011;36794;51.212;6.980;2022-11-04T02:01:12;4.97;;;2.73;;
50821;SDS011;36794;51.212;6.980;2022-11-04T02:03:49;3.30;;;2.60;;
50821;SDS011;36794;51.212;6.980;2022-11-04T02:06:16;6.00;;;2.83;;
50821;SDS011;36794;51.212;6.980;2022-11-04T02:08:43;3.63;;;2.40;;
50821;SDS011;36794;51.212;6.980;2022-11-04T02:11:10;2.97;;;2.00;;
50821;SDS011;36794;51.212;6.980;2022-11-04T02:13:56;6.30;;;2.23;;
50821;SDS011;36794;51.212;6.980;2022-11-04T02:16:25;5.67;;;2.33;;
50821;SDS011;36794;51.212;6.980;2022-11-04T02:21:29;5.10;;;2.20;;
50821;SDS011;36794;51.212;6.980;2022-11-04T02:26:40;6.40;;;2.27;;
50821;SDS011;36794;51.212;6.980;2022-11-04T02:31:50;7.73;;;1.53;;
50821;SDS011;36794;51.212;6.980;2022-11-04T02:34:25;5.07;;;1.43;;
50821;SDS011;36794;51.212;6.980;2022-11-04T02:37:00;7.67;;;1.37;;
50821;SDS011;36794;51.212;6.980;2022-11-04T02:41:59;4.90;;;1.30;;
50821;SDS011;36794;51.212;6.980;2022-11-04T02:44:34;9.60;;;1.57;;
50821;SDS011;36794;51.212;6.980;2022-11-04T02:47:02;6.07;;;1.20;;
50821;SDS011;36794;51.212;6.980;2022-11-04T02:52:06;8.83;;;1.23;;
50821;SDS011;36794;51.212;6.980;2022-11-04T02:54:37;6.27;;;1.03;;
50821;SDS011;36794;51.212;6.980;2022-11-04T02:57:06;6.57;;;1.30;;
50821;SDS011;36794;51.212;6.980;2022-11-04T02:59:36;8.60;;;1.53;;
50821;SDS011;36794;51.212;6.980;2022-11-04T03:02:05;8.20;;;1.57;;
50821;SDS011;36794;51.212;6.980;2022-11-04T03:04:33;7.37;;;1.20;;
50821;SDS011;36794;51.212;6.980;2022-11-04T03:07:02;7.17;;;1.70;;
50821;SDS011;36794;51.212;6.980;2022-11-04T03:09:28;7.13;;;1.30;;
50821;SDS011;36794;51.212;6.980;2022-11-04T03:11:58;7.60;;;1.53;;
50821;SDS011;36794;51.212;6.980;2022-11-04T03:14:27;9.17;;;1.53;;
50821;SDS011;36794;51.212;6.980;2022-11-04T03:16:56;9.77;;;1.57;;
50821;SDS011;36794;51.212;6.980;2022-11-04T03:19:43;6.50;;;1.40;;
50821;SDS011;36794;51.212;6.980;2022-11-04T03:22:13;7.53;;;1.30;;
50821;SDS011;36794;51.212;6.980;2022-11-04T03:24:41;15.70;;;1.40;;
50821;SDS011;36794;51.212;6.980;2022-11-04T03:27:14;7.13;;;1.17;;
50821;SDS011;36794;51.212;6.980;2022-11-04T03:32:23;6.90;;;1.33;;
50821;SDS011;36794;51.212;6.980;2022-11-04T03:34:52;2.93;;;1.03;;
50821;SDS011;36794;51.212;6.980;2022-11-04T03:52:47;8.87;;;0.90;;
50821;SDS011;36794;51.212;6.980;2022-11-04T03:55:13;6.23;;;1.10;;
50821;SDS011;36794;51.212;6.980;2022-11-04T04:00:24;6.00;;;0.73;;
50821;SDS011;36794;51.212;6.980;2022-11-04T04:05:50;11.85;;;1.15;;
50821;SDS011;36794;51.212;6.980;2022-11-04T04:08:37;8.77;;;1.10;;
50821;SDS011;36794;51.212;6.980;2022-11-04T04:11:09;9.00;;;1.27;;
50821;SDS011;36794;51.212;6.980;2022-11-04T04:13:41;7.13;;;0.90;;
50821;SDS011;36794;51.212;6.980;2022-11-04T04:16:12;9.47;;;0.90;;
50821;SDS011;36794;51.212;6.980;2022-11-04T04:18:45;3.47;;;0.93;;
50821;SDS011;36794;51.212;6.980;2022-11-04T04:21:13;6.50;;;1.10;;
50821;SDS011;36794;51.212;6.980;2022-11-04T04:23:40;4.77;;;1.13;;
50821;SDS011;36794;51.212;6.980;2022-11-04T04:26:26;4.53;;;0.73;;
50821;SDS011;36794;51.212;6.980;2022-11-04T04:29:12;6.20;;;1.00;;
50821;SDS011;36794;51.212;6.980;2022-11-04T04:31:38;7.33;;;0.83;;
50821;SDS011;36794;51.212;6.980;2022-11-04T04:34:20;8.40;;;0.90;;
50821;SDS011;36794;51.212;6.980;2022-11-04T04:37:10;4.90;;;0.83;;
50821;SDS011;36794;51.212;6.980;2022-11-04T04:39:47;6.30;;;1.30;;
50821;SDS011;36794;51.212;6.980;2022-11-04T04:42:33;8.23;;;0.87;;
50821;SDS011;36794;51.212;6.980;2022-11-04T04:45:23;13.80;;;1.63;;
50821;SDS011;36794;51.212;6.980;2022-11-04T04:47:50;7.37;;;1.00;;
50821;SDS011;36794;51.212;6.980;2022-11-04T04:50:17;7.30;;;1.27;;
50821;SDS011;36794;51.212;6.980;2022-11-04T04:52:45;6.97;;;1.33;;
50821;SDS011;36794;51.212;6.980;2022-11-04T04:55:11;7.17;;;1.30;;
50821;SDS011;36794;51.212;6.980;2022-11-04T04:57:37;6.87;;;1.10;;
50821;SDS011;36794;51.212;6.980;2022-11-04T05:00:04;8.23;;;1.37;;
50821;SDS011;36794;51.212;6.980;2022-11-04T05:02:31;6.20;;;1.00;;
50821;SDS011;36794;51.212;6.980;2022-11-04T05:04:57;12.53;;;1.70;;
50821;SDS011;36794;51.212;6.980;2022-11-04T05:07:23;6.40;;;1.10;;
50821;SDS011;36794;51.212;6.980;2022-11-04T05:09:49;7.03;;;1.00;;
50821;SDS011;36794;51.212;6.980;2022-11-04T05:12:15;7.33;;;1.20;;
50821;SDS011;36794;51.212;6.980;2022-11-04T05:14:41;11.60;;;1.27;;
50821;SDS011;36794;51.212;6.980;2022-11-04T05:17:07;7.70;;;1.20;;
50821;SDS011;36794;51.212;6.980;2022-11-04T05:19:33;6.93;;;1.43;;
50821;SDS011;36794;51.212;6.980;2022-11-04T05:21:59;7.40;;;1.33;;
50821;SDS011;36794;51.212;6.980;2022-11-04T05:24:25;7.40;;;1.23;;
50821;SDS011;36794;51.212;6.980;2022-11-04T05:26:51;8.70;;;1.27;;
50821;SDS011;36794;51.212;6.980;2022-11-04T05:29:17;7.90;;;0.97;;
50821;SDS011;36794;51.212;6.980;2022-11-04T05:31:43;6.43;;;1.10;;
50821;SDS011;36794;51.212;6.980;2022-11-04T05:34:09;9.70;;;1.53;;
50821;SDS011;36794;51.212;6.980;2022-11-04T05:36:36;8.47;;;1.20;;
50821;SDS011;36794;51.212;6.980;2022-11-04T05:39:02;3.47;;;1.00;;
50821;SDS011;36794;51.212;6.980;2022-11-04T05:41:28;9.57;;;1.43;;
50821;SDS011;36794;51.212;6.980;2022-11-04T05:43:55;6.23;;;1.57;;
50821;SDS011;36794;51.212;6.980;2022-11-04T05:46:22;7.70;;;1.73;;
50821;SDS011;36794;51.212;6.980;2022-11-04T05:48:48;9.33;;;2.20;;
50821;SDS011;36794;51.212;6.980;2022-11-04T05:51:15;7.70;;;2.00;;
50821;SDS011;36794;51.212;6.980;2022-11-04T05:53:41;6.10;;;1.60;;
50821;SDS011;36794;51.212;6.980;2022-11-04T05:56:07;9.00;;;1.93;;
50821;SDS011;36794;51.212;6.980;2022-11-04T05:58:33;6.10;;;1.60;;
50821;SDS011;36794;51.212;6.980;2022-11-04T06:03:44;8.80;;;1.67;;
50821;SDS011;36794;51.212;6.980;2022-11-04T06:06:10;10.33;;;2.23;;
50821;SDS011;36794;51.212;6.980;2022-11-04T06:08:36;13.53;;;1.90;;
50821;SDS011;36794;51.212;6.980;2022-11-04T06:11:03;6.07;;;1.90;;
50821;SDS011;36794;51.212;6.980;2022-11-04T06:13:29;14.00;;;2.30;;
50821;SDS011;36794;51.212;6.980;2022-11-04T06:15:56;8.97;;;1.70;;
50821;SDS011;36794;51.212;6.980;2022-11-04T06:18:21;8.07;;;1.90;;
50821;SDS011;36794;51.212;6.980;2022-11-04T06:23:35;10.93;;;1.85;;
50821;SDS011;36794;51.212;6.980;2022-11-04T06:26:03;9.07;;;1.93;;
50821;SDS011;36794;51.212;6.980;2022-11-04T06:28:29;8.37;;;1.93;;
50821;SDS011;36794;51.212;6.980;2022-11-04T06:30:56;6.47;;;2.13;;
50821;SDS011;36794;51.212;6.980;2022-11-04T06:33:23;6.63;;;1.70;;
50821;SDS011;36794;51.212;6.980;2022-11-04T06:35:49;10.47;;;2.03;;
50821;SDS011;36794;51.212;6.980;2022-11-04T06:38:15;10.83;;;1.80;;
50821;SDS011;36794;51.212;6.980;2022-11-04T06:40:43;6.83;;;1.50;;
50821;SDS011;36794;51.212;6.980;2022-11-04T06:43:10;6.70;;;1.50;;
50821;SDS011;36794;51.212;6.980;2022-11-04T06:45:36;7.00;;;1.40;;
50821;SDS011;36794;51.212;6.980;2022-11-04T06:48:02;4.60;;;1.50;;
50821;SDS011;36794;51.212;6.980;2022-11-04T06:50:28;9.77;;;1.87;;
50821;SDS011;36794;51.212;6.980;2022-11-04T06:52:54;7.67;;;1.73;;
50821;SDS011;36794;51.212;6.980;2022-11-04T06:55:31;10.53;;;2.13;;
50821;SDS011;36794;51.212;6.980;2022-11-04T06:58:00;15.87;;;2.47;;
50821;SDS011;36794;51.212;6.980;2022-11-04T07:00:29;10.00;;;1.93;;
50821;SDS011;36794;51.212;6.980;2022-11-04T07:02:55;7.03;;;2.10;;
50821;SDS011;36794;51.212;6.980;2022-11-04T07:05:28;8.77;;;2.20;;
50821;SDS011;36794;51.212;6.980;2022-11-04T07:07:57;7.97;;;1.83;;
50821;SDS011;36794;51.212;6.980;2022-11-04T07:10:23;7.30;;;1.77;;
50821;SDS011;36794;51.212;6.980;2022-11-04T07:12:49;7.50;;;2.00;;
50821;SDS011;36794;51.212;6.980;2022-11-04T07:15:18;9.73;;;2.10;;
50821;SDS011;36794;51.212;6.980;2022-11-04T07:17:47;11.10;;;2.40;;
50821;SDS011;36794;51.212;6.980;2022-11-04T07:20:13;5.20;;;1.60;;
50821;SDS011;36794;51.212;6.980;2022-11-04T07:22:39;9.03;;;1.80;;
50821;SDS011;36794;51.212;6.980;2022-11-04T07:25:05;6.93;;;1.90;;
50821;SDS011;36794;51.212;6.980;2022-11-04T07:27:31;10.77;;;2.00;;
50821;SDS011;36794;51.212;6.980;2022-11-04T07:29:57;10.53;;;1.90;;
50821;SDS011;36794;51.212;6.980;2022-11-04T07:32:23;6.70;;;1.80;;
50821;SDS011;36794;51.212;6.980;2022-11-04T07:34:49;9.37;;;1.87;;
50821;SDS011;36794;51.212;6.980;2022-11-04T07:37:15;13.00;;;1.83;;
50821;SDS011;36794;51.212;6.980;2022-11-04T07:39:40;8.07;;;1.60;;
50821;SDS011;36794;51.212;6.980;2022-11-04T07:42:07;6.30;;;1.60;;
50821;SDS011;36794;51.212;6.980;2022-11-04T07:44:33;12.67;;;1.83;;
50821;SDS011;36794;51.212;6.980;2022-11-04T07:46:59;11.10;;;1.77;;
50821;SDS011;36794;51.212;6.980;2022-11-04T07:49:25;10.43;;;1.40;;
50821;SDS011;36794;51.212;6.980;2022-11-04T07:51:54;6.93;;;1.77;;
50821;SDS011;36794;51.212;6.980;2022-11-04T07:54:20;6.80;;;1.60;;
50821;SDS011;36794;51.212;6.980;2022-11-04T07:56:48;6.43;;;1.43;;
50821;SDS011;36794;51.212;6.980;2022-11-04T07:59:17;8.37;;;1.60;;
50821;SDS011;36794;51.212;6.980;2022-11-04T08:01:46;6.90;;;1.70;;
50821;SDS011;36794;51.212;6.980;2022-11-04T08:04:15;7.17;;;1.87;;
50821;SDS011;36794;51.212;6.980;2022-11-04T08:06:47;11.40;;;1.83;;
50821;SDS011;36794;51.212;6.980;2022-11-04T08:09:13;10.53;;;1.60;;
50821;SDS011;36794;51.212;6.980;2022-11-04T08:11:39;7.80;;;1.40;;
50821;SDS011;36794;51.212;6.980;2022-11-04T08:14:05;5.20;;;1.37;;
50821;SDS011;36794;51.212;6.980;2022-11-04T08:16:34;5.90;;;1.63;;
50821;SDS011;36794;51.212;6.980;2022-11-04T08:19:00;7.63;;;1.40;;
50821;SDS011;36794;51.212;6.980;2022-11-04T08:21:27;6.47;;;1.53;;
50821;SDS011;36794;51.212;6.980;2022-11-04T08:23:53;12.43;;;1.63;;
50821;SDS011;36794;51.212;6.980;2022-11-04T08:26:19;11.07;;;1.40;;
50821;SDS011;36794;51.212;6.980;2022-11-04T08:28:47;8.63;;;1.40;;
50821;SDS011;36794;51.212;6.980;2022-11-04T08:31:23;5.80;;;1.60;;
50821;SDS011;36794;51.212;6.980;2022-11-04T08:33:50;7.03;;;1.50;;
50821;SDS011;36794;51.212;6.980;2022-11-04T08:36:17;10.70;;;1.60;;
50821;SDS011;36794;51.212;6.980;2022-11-04T08:38:44;5.73;;;1.30;;
50821;SDS011;36794;51.212;6.980;2022-11-04T08:41:10;12.20;;;1.87;;
50821;SDS011;36794;51.212;6.980;2022-11-04T08:43:37;13.37;;;1.50;;
50821;SDS011;36794;51.212;6.980;2022-11-04T08:46:04;15.27;;;1.60;;
50821;SDS011;36794;51.212;6.980;2022-11-04T08:48:30;10.33;;;1.67;;
50821;SDS011;36794;51.212;6.980;2022-11-04T08:50:56;4.20;;;1.20;;
50821;SDS011;36794;51.212;6.980;2022-11-04T08:53:23;9.13;;;1.90;;
50821;SDS011;36794;51.212;6.980;2022-11-04T08:55:49;6.30;;;1.43;;
50821;SDS011;36794;51.212;6.980;2022-11-04T08:58:15;6.57;;;1.60;;
50821;SDS011;36794;51.212;6.980;2022-11-04T09:00:41;9.30;;;1.43;;
50821;SDS011;36794;51.212;6.980;2022-11-04T09:03:07;9.07;;;1.30;;
50821;SDS011;36794;51.212;6.980;2022-11-04T09:05:35;8.47;;;1.70;;
50821;SDS011;36794;51.212;6.980;2022-11-04T09:10:34;8.70;;;1.27;;
50821;SDS011;36794;51.212;6.980;2022-11-04T09:13:00;8.20;;;1.70;;
50821;SDS011;36794;51.212;6.980;2022-11-04T09:15:26;6.77;;;2.00;;
50821;SDS011;36794;51.212;6.980;2022-11-04T09:17:52;10.10;;;1.70;;
50821;SDS011;36794;51.212;6.980;2022-11-04T09:20:18;6.07;;;1.23;;
50821;SDS011;36794;51.212;6.980;2022-11-04T09:22:44;10.47;;;1.63;;
50821;SDS011;36794;51.212;6.980;2022-11-04T09:25:10;12.20;;;1.53;;
50821;SDS011;36794;51.212;6.980;2022-11-04T09:27:36;6.27;;;1.57;;
50821;SDS011;36794;51.212;6.980;2022-11-04T09:30:02;9.47;;;1.33;;
50821;SDS011;36794;51.212;6.980;2022-11-04T09:32:28;6.57;;;1.60;;
50821;SDS011;36794;51.212;6.980;2022-11-04T09:34:54;6.73;;;1.40;;
50821;SDS011;36794;51.212;6.980;2022-11-04T09:37:20;9.83;;;1.33;;
50821;SDS011;36794;51.212;6.980;2022-11-04T09:39:46;6.07;;;1.40;;
50821;SDS011;36794;51.212;6.980;2022-11-04T09:42:16;7.70;;;2.00;;
50821;SDS011;36794;51.212;6.980;2022-11-04T09:44:52;7.13;;;1.27;;
50821;SDS011;36794;51.212;6.980;2022-11-04T09:47:19;6.70;;;1.20;;
50821;SDS011;36794;51.212;6.980;2022-11-04T09:49:47;7.23;;;1.30;;
50821;SDS011;36794;51.212;6.980;2022-11-04T09:52:22;6.37;;;1.80;;
50821;SDS011;36794;51.212;6.980;2022-11-04T09:55:03;7.97;;;1.50;;
50821;SDS011;36794;51.212;6.980;2022-11-04T09:57:30;8.27;;;1.67;;
50821;SDS011;36794;51.212;6.980;2022-11-04T09:59:57;5.83;;;1.30;;
50821;SDS011;36794;51.212;6.980;2022-11-04T10:07:46;7.30;;;1.30;;
50821;SDS011;36794;51.212;6.980;2022-11-04T10:10:18;5.07;;;1.40;;
50821;SDS011;36794;51.212;6.980;2022-11-04T10:15:27;7.33;;;2.03;;
50821;SDS011;36794;51.212;6.980;2022-11-04T10:18:06;9.57;;;1.70;;
50821;SDS011;36794;51.212;6.980;2022-11-04T10:20:37;6.90;;;1.50;;
50821;SDS011;36794;51.212;6.980;2022-11-04T10:23:13;8.50;;;1.50;;
50821;SDS011;36794;51.212;6.980;2022-11-04T10:25:49;7.20;;;1.52;;
50821;SDS011;36794;51.212;6.980;2022-11-04T10:28:18;8.13;;;1.53;;
50821;SDS011;36794;51.212;6.980;2022-11-04T10:30:48;8.60;;;1.90;;
50821;SDS011;36794;51.212;6.980;2022-11-04T10:33:24;8.70;;;1.50;;
50821;SDS011;36794;51.212;6.980;2022-11-04T10:35:53;8.43;;;2.40;;
50821;SDS011;36794;51.212;6.980;2022-11-04T10:40:53;10.10;;;1.70;;
50821;SDS011;36794;51.212;6.980;2022-11-04T10:43:33;7.13;;;1.53;;
50821;SDS011;36794;51.212;6.980;2022-11-04T10:46:03;7.80;;;1.60;;
50821;SDS011;36794;51.212;6.980;2022-11-04T10:48:33;7.20;;;1.50;;
50821;SDS011;36794;51.212;6.980;2022-11-04T10:51:02;9.50;;;1.80;;
50821;SDS011;36794;51.212;6.980;2022-11-04T10:53:30;7.37;;;1.30;;
50821;SDS011;36794;51.212;6.980;2022-11-04T10:58:23;5.70;;;2.10;;
50821;SDS011;36794;51.212;6.980;2022-11-04T11:00:50;7.23;;;2.00;;
50821;SDS011;36794;51.212;6.980;2022-11-04T11:03:30;11.57;;;2.30;;
50821;SDS011;36794;51.212;6.980;2022-11-04T11:06:31;5.80;;;1.90;;
50821;SDS011;36794;51.212;6.980;2022-11-04T11:12:04;9.02;;;1.88;;
50821;SDS011;36794;51.212;6.980;2022-11-04T11:14:33;8.83;;;2.27;;
50821;SDS011;36794;51.212;6.980;2022-11-04T11:17:20;9.27;;;1.80;;
50821;SDS011;36794;51.212;6.980;2022-11-04T11:19:49;12.40;;;2.23;;
50821;SDS011;36794;51.212;6.980;2022-11-04T11:22:26;6.87;;;1.70;;
50821;SDS011;36794;51.212;6.980;2022-11-04T11:24:52;11.52;;;2.47;;
50821;SDS011;36794;51.212;6.980;2022-11-04T11:27:18;13.23;;;2.47;;
50821;SDS011;36794;51.212;6.980;2022-11-04T11:29:46;10.20;;;2.17;;
50821;SDS011;36794;51.212;6.980;2022-11-04T12:14:30;11.40;;;2.65;;
50821;SDS011;36794;51.212;6.980;2022-11-04T12:36:42;14.43;;;2.47;;
50821;SDS011;36794;51.212;6.980;2022-11-04T12:49:16;8.60;;;2.10;;
50821;SDS011;36794;51.212;6.980;2022-11-04T12:51:56;13.70;;;2.53;;
50821;SDS011;36794;51.212;6.980;2022-11-04T12:57:07;9.33;;;1.80;;
50821;SDS011;36794;51.212;6.980;2022-11-04T13:04:38;7.60;;;1.70;;
50821;SDS011;36794;51.212;6.980;2022-11-04T13:07:09;7.10;;;1.60;;
50821;SDS011;36794;51.212;6.980;2022-11-04T13:09:51;10.43;;;2.10;;
50821;SDS011;36794;51.212;6.980;2022-11-04T13:12:31;8.47;;;2.00;;
50821;SDS011;36794;51.212;6.980;2022-11-04T13:14:59;7.43;;;1.70;;
50821;SDS011;36794;51.212;6.980;2022-11-04T13:17:30;10.37;;;1.80;;
50821;SDS011;36794;51.212;6.980;2022-11-04T13:19:59;7.17;;;1.33;;
50821;SDS011;36794;51.212;6.980;2022-11-04T13:22:30;8.23;;;1.90;;
50821;SDS011;36794;51.212;6.980;2022-11-04T13:25:20;5.53;;;1.30;;
50821;SDS011;36794;51.212;6.980;2022-11-04T13:27:48;5.93;;;1.40;;
50821;SDS011;36794;51.212;6.980;2022-11-04T13:30:19;20.07;;;1.90;;
50821;SDS011;36794;51.212;6.980;2022-11-04T13:32:52;4.50;;;1.27;;
50821;SDS011;36794;51.212;6.980;2022-11-04T13:37:49;9.60;;;1.50;;
50821;SDS011;36794;51.212;6.980;2022-11-04T13:40:18;6.07;;;1.50;;
50821;SDS011;36794;51.212;6.980;2022-11-04T13:42:58;7.50;;;1.50;;
50821;SDS011;36794;51.212;6.980;2022-11-04T13:45:49;13.40;;;1.90;;
50821;SDS011;36794;51.212;6.980;2022-11-04T13:48:17;15.70;;;2.47;;
50821;SDS011;36794;51.212;6.980;2022-11-04T13:50:45;6.90;;;1.73;;
50821;SDS011;36794;51.212;6.980;2022-11-04T13:53:20;7.87;;;2.00;;
50821;SDS011;36794;51.212;6.980;2022-11-04T13:55:49;4.53;;;1.80;;
50821;SDS011;36794;51.212;6.980;2022-11-04T13:58:24;9.17;;;1.87;;
50821;SDS011;36794;51.212;6.980;2022-11-04T14:01:09;8.13;;;1.90;;
50821;SDS011;36794;51.212;6.980;2022-11-04T14:06:03;8.77;;;2.47;;
50821;SDS011;36794;51.212;6.980;2022-11-04T14:08:29;8.70;;;1.90;;
50821;SDS011;36794;51.212;6.980;2022-11-04T14:18:28;12.17;;;2.30;;
50821;SDS011;36794;51.212;6.980;2022-11-04T14:21:07;7.23;;;2.60;;
50821;SDS011;36794;51.212;6.980;2022-11-04T14:23:33;9.43;;;2.73;;
50821;SDS011;36794;51.212;6.980;2022-11-04T14:26:01;8.77;;;1.97;;
50821;SDS011;36794;51.212;6.980;2022-11-04T14:28:28;8.53;;;1.90;;
50821;SDS011;36794;51.212;6.980;2022-11-04T14:30:56;9.60;;;2.20;;
50821;SDS011;36794;51.212;6.980;2022-11-04T14:36:12;10.77;;;2.33;;
50821;SDS011;36794;51.212;6.980;2022-11-04T14:38:39;6.77;;;1.97;;
50821;SDS011;36794;51.212;6.980;2022-11-04T14:43:49;6.03;;;1.83;;
50821;SDS011;36794;51.212;6.980;2022-11-04T14:46:22;11.93;;;2.97;;
50821;SDS011;36794;51.212;6.980;2022-11-04T14:48:50;10.70;;;2.03;;
50821;SDS011;36794;51.212;6.980;2022-11-04T14:51:19;8.17;;;2.30;;
50821;SDS011;36794;51.212;6.980;2022-11-04T14:53:55;9.97;;;2.20;;
50821;SDS011;36794;51.212;6.980;2022-11-04T14:56:24;7.70;;;1.90;;
50821;SDS011;36794;51.212;6.980;2022-11-04T14:58:58;14.70;;;2.50;;
50821;SDS011;36794;51.212;6.980;2022-11-04T15:01:25;12.30;;;1.93;;
50821;SDS011;36794;51.212;6.980;2022-11-04T15:03:53;10.10;;;2.07;;
50821;SDS011;36794;51.212;6.980;2022-11-04T15:06:27;13.43;;;2.13;;
50821;SDS011;36794;51.212;6.980;2022-11-04T15:08:54;9.03;;;2.70;;
50821;SDS011;36794;51.212;6.980;2022-11-04T15:11:21;11.93;;;2.70;;
50821;SDS011;36794;51.212;6.980;2022-11-04T15:14:12;9.60;;;2.50;;
50821;SDS011;36794;51.212;6.980;2022-11-04T15:16:38;8.63;;;2.60;;
50821;SDS011;36794;51.212;6.980;2022-11-04T15:19:06;9.73;;;2.33;;
50821;SDS011;36794;51.212;6.980;2022-11-04T15:21:37;11.17;;;2.27;;
50821;SDS011;36794;51.212;6.980;2022-11-04T15:24:03;9.90;;;2.50;;
50821;SDS011;36794;51.212;6.980;2022-11-04T15:26:30;11.90;;;2.40;;
50821;SDS011;36794;51.212;6.980;2022-11-04T15:28:58;7.93;;;1.97;;
50821;SDS011;36794;51.212;6.980;2022-11-04T15:31:31;7.17;;;2.30;;
50821;SDS011;36794;51.212;6.980;2022-11-04T15:34:04;11.20;;;2.73;;
50821;SDS011;36794;51.212;6.980;2022-11-04T15:36:35;8.98;;;2.75;;
50821;SDS011;36794;51.212;6.980;2022-11-04T15:39:04;8.63;;;2.33;;
50821;SDS011;36794;51.212;6.980;2022-11-04T15:41:31;11.03;;;2.90;;
50821;SDS011;36794;51.212;6.980;2022-11-04T15:44:17;10.23;;;2.50;;
50821;SDS011;36794;51.212;6.980;2022-11-04T15:46:49;7.63;;;2.50;;
50821;SDS011;36794;51.212;6.980;2022-11-04T15:49:20;10.13;;;2.77;;
50821;SDS011;36794;51.212;6.980;2022-11-04T15:51:46;9.07;;;2.90;;
50821;SDS011;36794;51.212;6.980;2022-11-04T15:54:40;15.87;;;2.97;;
50821;SDS011;36794;51.212;6.980;2022-11-04T15:57:11;13.27;;;2.70;;
50821;SDS011;36794;51.212;6.980;2022-11-04T15:59:38;11.47;;;3.03;;
50821;SDS011;36794;51.212;6.980;2022-11-04T16:02:05;13.80;;;3.20;;
50821;SDS011;36794;51.212;6.980;2022-11-04T16:04:40;8.23;;;2.80;;
50821;SDS011;36794;51.212;6.980;2022-11-04T16:09:46;12.87;;;2.90;;
50821;SDS011;36794;51.212;6.980;2022-11-04T16:12:16;11.63;;;2.50;;
50821;SDS011;36794;51.212;6.980;2022-11-04T16:14:53;10.13;;;2.27;;
50821;SDS011;36794;51.212;6.980;2022-11-04T16:17:19;10.03;;;2.80;;
50821;SDS011;36794;51.212;6.980;2022-11-04T16:19:46;9.13;;;2.27;;
50821;SDS011;36794;51.212;6.980;2022-11-04T16:22:16;10.83;;;2.90;;
50821;SDS011;36794;51.212;6.980;2022-11-04T16:24:44;9.80;;;2.80;;
50821;SDS011;36794;51.212;6.980;2022-11-04T16:27:12;11.37;;;2.70;;
50821;SDS011;36794;51.212;6.980;2022-11-04T16:29:40;12.73;;;3.00;;
50821;SDS011;36794;51.212;6.980;2022-11-04T16:32:16;13.67;;;2.83;;
50821;SDS011;36794;51.212;6.980;2022-11-04T16:34:44;9.60;;;2.80;;
50821;SDS011;36794;51.212;6.980;2022-11-04T16:37:10;11.00;;;2.93;;
50821;SDS011;36794;51.212;6.980;2022-11-04T16:39:37;11.93;;;3.20;;
50821;SDS011;36794;51.212;6.980;2022-11-04T16:42:03;10.87;;;3.13;;
50821;SDS011;36794;51.212;6.980;2022-11-04T16:44:29;12.70;;;3.77;;
50821;SDS011;36794;51.212;6.980;2022-11-04T16:46:56;11.23;;;3.10;;
50821;SDS011;36794;51.212;6.980;2022-11-04T16:49:22;13.87;;;3.40;;
50821;SDS011;36794;51.212;6.980;2022-11-04T16:51:51;8.23;;;3.23;;
50821;SDS011;36794;51.212;6.980;2022-11-04T16:54:18;13.23;;;3.07;;
50821;SDS011;36794;51.212;6.980;2022-11-04T16:56:44;10.20;;;3.33;;
50821;SDS011;36794;51.212;6.980;2022-11-04T16:59:10;10.77;;;3.13;;
50821;SDS011;36794;51.212;6.980;2022-11-04T17:01:36;8.43;;;3.57;;
50821;SDS011;36794;51.212;6.980;2022-11-04T17:04:05;11.17;;;2.83;;
50821;SDS011;36794;51.212;6.980;2022-11-04T17:06:32;11.87;;;3.37;;
50821;SDS011;36794;51.212;6.980;2022-11-04T17:08:58;16.23;;;3.53;;
50821;SDS011;36794;51.212;6.980;2022-11-04T17:11:25;9.87;;;3.47;;
50821;SDS011;36794;51.212;6.980;2022-11-04T17:13:51;13.67;;;3.43;;
50821;SDS011;36794;51.212;6.980;2022-11-04T17:16:17;15.47;;;3.53;;
50821;SDS011;36794;51.212;6.980;2022-11-04T17:18:43;10.97;;;4.03;;
50821;SDS011;36794;51.212;6.980;2022-11-04T17:21:10;9.77;;;4.10;;
50821;SDS011;36794;51.212;6.980;2022-11-04T17:23:36;16.83;;;4.40;;
50821;SDS011;36794;51.212;6.980;2022-11-04T17:26:02;12.67;;;3.67;;
50821;SDS011;36794;51.212;6.980;2022-11-04T17:28:28;10.00;;;3.27;;
50821;SDS011;36794;51.212;6.980;2022-11-04T17:30:56;12.50;;;3.93;;
50821;SDS011;36794;51.212;6.980;2022-11-04T17:33:22;14.23;;;3.80;;
50821;SDS011;36794;51.212;6.980;2022-11-04T17:35:48;6.93;;;3.43;;
50821;SDS011;36794;51.212;6.980;2022-11-04T17:38:16;21.70;;;4.40;;
50821;SDS011;36794;51.212;6.980;2022-11-04T17:40:42;15.17;;;4.47;;
50821;SDS011;36794;51.212;6.980;2022-11-04T17:43:26;14.82;;;3.55;;
50821;SDS011;36794;51.212;6.980;2022-11-04T17:46:11;13.80;;;5.18;;
50821;SDS011;36794;51.212;6.980;2022-11-04T17:48:56;18.83;;;5.03;;
50821;SDS011;36794;51.212;6.980;2022-11-04T17:51:22;11.97;;;4.63;;
50821;SDS011;36794;51.212;6.980;2022-11-04T17:53:48;15.33;;;4.50;;
50821;SDS011;36794;51.212;6.980;2022-11-04T17:56:15;11.77;;;4.70;;
50821;SDS011;36794;51.212;6.980;2022-11-04T17:58:41;11.77;;;4.10;;
50821;SDS011;36794;51.212;6.980;2022-11-04T18:01:08;14.53;;;4.20;;
50821;SDS011;36794;51.212;6.980;2022-11-04T18:03:34;10.93;;;4.10;;
50821;SDS011;36794;51.212;6.980;2022-11-04T18:06:00;12.83;;;4.30;;
50821;SDS011;36794;51.212;6.980;2022-11-04T18:08:27;11.17;;;4.40;;
50821;SDS011;36794;51.212;6.980;2022-11-04T18:10:56;16.53;;;4.43;;